Time;durP1;ratioP1;P1;durP2;ratioP2;P2;SDS_P1;SDS_P2;PMS_P1;PMS_P2;Temp;Humidity;BMP_temperature;BMP_pressure;BME280_temperature;BME280_humidity;BME280_pressure;Samples;Min_cycle;Max_cycle;Signal;HPM_P1;HPM_P2
2023/09/02 00:00:08;;;;;;;4.90;3.45;;;;;;;22.77;52.69;101762.16;5002635;28;20054;-33
2023/09/02 00:02:35;;;;;;;3.58;3.10;;;;;;;22.75;52.99;101758.75;5002570;28;20132;-33
2023/09/02 00:05:02;;;;;;;4.15;3.35;;;;;;;22.74;52.93;101754.38;5003600;28;20453;-33
2023/09/02 00:07:29;;;;;;;4.50;3.40;;;;;;;22.73;52.81;101761.63;5005077;28;20054;-33
2023/09/02 00:09:55;;;;;;;5.50;3.40;;;;;;;22.72;52.86;101759.09;5005902;28;20399;-33
2023/09/02 00:12:22;;;;;;;3.78;3.20;;;;;;;22.71;52.62;101760.09;5006610;28;20043;-33
2023/09/02 00:14:49;;;;;;;4.55;3.17;;;;;;;22.70;53.00;101763.81;5003301;28;20128;-33
2023/09/02 00:17:15;;;;;;;4.32;3.22;;;;;;;22.68;52.59;101761.28;5004566;28;20431;-33
2023/09/02 00:19:43;;;;;;;4.90;3.70;;;;;;;22.67;52.54;101759.56;5005026;28;20074;-33
2023/09/02 00:22:09;;;;;;;4.40;3.53;;;;;;;22.66;52.60;101765.97;5004198;28;20046;-33
2023/09/02 00:24:36;;;;;;;5.75;3.83;;;;;;;22.65;53.05;101758.91;5002180;28;20393;-33
2023/09/02 00:27:03;;;;;;;4.57;3.60;;;;;;;22.64;53.00;101757.22;5005722;28;20057;-33
2023/09/02 00:29:29;;;;;;;4.05;3.17;;;;;;;22.63;53.13;101753.66;5003459;28;20140;-33
2023/09/02 00:31:56;;;;;;;4.20;3.25;;;;;;;22.61;53.09;101755.66;5003820;28;20437;-33
2023/09/02 00:34:23;;;;;;;4.57;3.30;;;;;;;22.60;52.62;101753.13;5003634;28;20438;-33
2023/09/02 00:36:49;;;;;;;5.13;3.65;;;;;;;22.58;52.62;101750.59;5005209;28;20562;-33
2023/09/02 00:39:16;;;;;;;4.97;3.88;;;;;;;22.56;53.19;101752.63;5003630;28;20086;-33
2023/09/02 00:41:48;;;;;;;3.58;3.08;;;;;;;22.55;53.02;101755.44;5010077;28;20038;-33
2023/09/02 00:44:14;;;;;;;3.55;2.75;;;;;;;22.54;52.81;101754.63;5009190;28;20066;-33
2023/09/02 00:46:41;;;;;;;4.28;3.03;;;;;;;22.54;52.77;101751.06;5011279;28;20054;-34
2023/09/02 00:49:08;;;;;;;5.07;3.70;;;;;;;22.53;52.78;101741.28;5005791;28;20377;-33
2023/09/02 00:51:34;;;;;;;4.82;2.90;;;;;;;22.51;53.16;101745.97;5003312;28;20050;-33
2023/09/02 00:54:01;;;;;;;5.05;3.75;;;;;;;22.49;52.71;101748.00;5006078;28;20116;-33
2023/09/02 00:56:30;;;;;;;3.42;2.90;;;;;;;22.48;53.14;101746.31;5006711;28;20154;-34
2023/09/02 00:59:01;;;;;;;4.75;3.33;;;;;;;22.48;52.90;101746.31;5005582;28;20085;-33
2023/09/02 01:01:31;;;;;;;4.25;3.47;;;;;;;22.46;52.99;101749.16;5004754;28;20085;-33
2023/09/02 01:03:58;;;;;;;5.10;3.20;;;;;;;22.44;53.11;101745.81;5005046;28;20060;-33
2023/09/02 01:06:25;;;;;;;4.20;3.10;;;;;;;22.43;53.00;101746.78;5010503;28;20124;-33
2023/09/02 01:08:51;;;;;;;4.78;3.28;;;;;;;22.44;52.66;101761.16;5001748;28;20058;-33
2023/09/02 01:11:18;;;;;;;4.03;3.28;;;;;;;22.41;52.79;101749.66;5005416;28;20096;-33
2023/09/02 01:13:45;;;;;;;5.20;3.40;;;;;;;22.42;53.21;101764.00;5001011;28;20405;-33
2023/09/02 01:16:11;;;;;;;3.78;2.95;;;;;;;22.40;53.20;101757.94;5005406;28;20060;-33
2023/09/02 01:18:38;;;;;;;3.90;3.45;;;;;;;22.39;53.17;101759.78;5002011;28;20137;-33
2023/09/02 01:21:16;;;;;;;3.75;2.95;;;;;;;22.38;53.16;101765.34;5001757;28;20129;-33
2023/09/02 01:23:52;;;;;;;5.05;3.42;;;;;;;22.37;53.35;101763.66;4999844;28;20457;-33
2023/09/02 01:26:26;;;;;;;3.90;3.30;;;;;;;22.36;53.25;101770.06;4997815;28;20092;-33
2023/09/02 01:28:57;;;;;;;4.28;3.50;;;;;;;22.36;53.31;101780.88;5004090;28;20057;-33
2023/09/02 01:31:24;;;;;;;4.38;2.90;;;;;;;22.34;53.04;101772.91;4999858;28;20050;-33
2023/09/02 01:33:53;;;;;;;4.55;3.30;;;;;;;22.33;53.12;101776.63;4999469;28;20505;-33
2023/09/02 01:36:22;;;;;;;4.47;3.65;;;;;;;22.33;52.77;101781.19;5000814;28;20319;-33
2023/09/02 01:38:52;;;;;;;4.65;3.55;;;;;;;22.32;53.04;101790.28;5001419;28;20042;-33
2023/09/02 01:41:21;;;;;;;4.00;3.47;;;;;;;22.31;53.13;101784.06;5002632;28;20041;-33
2023/09/02 01:43:48;;;;;;;4.72;3.60;;;;;;;22.30;53.29;101781.50;5004704;28;20101;-33
2023/09/02 01:46:17;;;;;;;4.05;3.28;;;;;;;22.29;53.20;101790.59;5002851;28;20082;-33
2023/09/02 01:48:44;;;;;;;4.95;3.33;;;;;;;22.28;53.29;101797.03;5002981;28;20050;-33
2023/09/02 01:51:12;;;;;;;3.70;3.22;;;;;;;22.26;53.00;101802.56;4999712;28;20462;-33
2023/09/02 01:53:38;;;;;;;4.00;3.30;;;;;;;22.27;53.29;101806.97;4996655;28;20684;-33
2023/09/02 01:56:05;;;;;;;4.85;3.38;;;;;;;22.26;52.91;101802.56;5000183;28;20491;-33
2023/09/02 01:58:32;;;;;;;5.45;3.45;;;;;;;22.26;53.16;101804.41;5001707;28;20077;-33
2023/09/02 02:00:58;;;;;;;4.28;3.63;;;;;;;22.25;53.04;101805.44;5001257;28;20109;-33
2023/09/02 02:03:30;;;;;;;4.43;3.58;;;;;;;22.24;53.25;101803.75;5001675;28;20144;-33
2023/09/02 02:06:00;;;;;;;4.63;3.38;;;;;;;22.23;53.29;101802.91;4998185;28;20451;-33
2023/09/02 02:08:43;;;;;;;4.00;3.47;;;;;;;22.21;53.13;101812.16;4998243;28;20050;-33
2023/09/02 02:11:11;;;;;;;3.87;3.20;;;;;;;22.23;53.10;101813.72;5003531;28;20132;-33
2023/09/02 02:13:38;;;;;;;3.60;3.03;;;;;;;22.22;52.86;101817.38;5001420;28;20584;-33
2023/09/02 02:16:05;;;;;;;4.57;3.28;;;;;;;22.23;52.88;101820.94;5002157;28;20049;-33
2023/09/02 02:18:31;;;;;;;3.85;3.25;;;;;;;22.22;52.92;101816.53;5002726;28;20057;-33
2023/09/02 02:21:05;;;;;;;4.53;3.42;;;;;;;22.22;53.14;101811.16;5002946;28;20253;-33
2023/09/02 02:23:32;;;;;;;3.88;3.08;;;;;;;22.22;53.20;101814.69;4998064;28;20081;-33
2023/09/02 02:26:02;;;;;;;4.55;3.40;;;;;;;22.23;53.23;101820.94;5003586;28;20054;-33
2023/09/02 02:28:29;;;;;;;4.93;3.63;;;;;;;22.23;53.11;101818.22;5003451;28;20057;-33
2023/09/02 02:30:57;;;;;;;4.15;3.28;;;;;;;22.24;53.07;101828.06;5002582;28;20515;-33
2023/09/02 02:33:24;;;;;;;5.05;3.20;;;;;;;22.23;52.76;101818.22;5009653;28;20045;-33
2023/09/02 02:35:51;;;;;;;3.88;3.17;;;;;;;22.23;52.85;101827.22;5001441;28;20057;-33
2023/09/02 02:38:17;;;;;;;4.10;3.30;;;;;;;22.23;52.74;101823.63;5003874;28;20042;-33
2023/09/02 02:40:44;;;;;;;3.88;3.30;;;;;;;22.23;52.90;101829.91;5006108;28;20430;-33
2023/09/02 02:43:11;;;;;;;3.88;3.25;;;;;;;22.24;52.81;101825.34;5000615;28;20062;-33
2023/09/02 02:45:38;;;;;;;4.05;3.42;;;;;;;22.23;53.15;101826.34;5009356;28;20121;-33
2023/09/02 02:48:04;;;;;;;3.58;3.28;;;;;;;22.23;52.79;101834.44;5004295;28;20132;-33
2023/09/02 02:50:35;;;;;;;4.40;3.33;;;;;;;22.24;53.13;101831.59;5004640;28;20081;-33
2023/09/02 02:53:02;;;;;;;3.63;3.20;;;;;;;22.24;52.76;101825.34;4999858;28;20108;-33
2023/09/02 02:55:29;;;;;;;3.70;3.05;;;;;;;22.22;52.63;101822.78;5003805;28;20054;-33
2023/09/02 02:57:56;;;;;;;3.55;3.10;;;;;;;22.22;52.91;101820.09;5007917;28;20450;-33
2023/09/02 03:00:24;;;;;;;3.15;2.85;;;;;;;22.23;52.96;101820.94;5005760;28;20061;-33
2023/09/02 03:02:52;;;;;;;4.35;3.40;;;;;;;22.22;53.04;101813.84;5004643;28;20057;-33
2023/09/02 03:05:20;;;;;;;3.95;3.20;;;;;;;22.21;52.36;101821.09;5000288;28;20056;-33
2023/09/02 03:07:48;;;;;;;3.72;3.10;;;;;;;22.20;52.89;101818.56;5001575;28;20052;-33
2023/09/02 03:10:15;;;;;;;4.15;3.47;;;;;;;22.20;52.98;101819.41;4998851;28;20480;-33
2023/09/02 03:12:41;;;;;;;3.55;2.97;;;;;;;22.19;53.01;101815.00;5000509;28;20430;-33
2023/09/02 03:15:08;;;;;;;5.47;3.38;;;;;;;22.19;52.67;101815.00;5001945;28;20057;-33
2023/09/02 03:17:35;;;;;;;3.80;3.17;;;;;;;22.17;52.97;101815.16;5001382;28;20506;-32
2023/09/02 03:20:02;;;;;;;3.60;3.22;;;;;;;22.18;52.84;101826.81;5001518;28;20512;-32
2023/09/02 03:22:29;;;;;;;4.35;3.17;;;;;;;22.18;52.83;101824.09;5003230;28;20425;-32
2023/09/02 03:24:55;;;;;;;4.10;3.10;;;;;;;22.17;52.73;101819.72;5001743;28;20058;-33
2023/09/02 03:27:22;;;;;;;3.58;3.10;;;;;;;22.17;52.72;101825.13;5002192;28;20134;-33
2023/09/02 03:29:49;;;;;;;3.95;3.42;;;;;;;22.17;52.87;101825.97;5001328;28;20108;-33
2023/09/02 03:32:16;;;;;;;4.10;3.45;;;;;;;22.17;52.79;101831.38;5006218;28;20415;-33
2023/09/02 03:34:43;;;;;;;4.00;3.25;;;;;;;22.17;52.73;101822.41;5006297;28;20098;-34
2023/09/02 03:37:10;;;;;;;4.53;3.42;;;;;;;22.17;52.51;101830.53;5004856;28;20413;-33
2023/09/02 03:39:36;;;;;;;5.20;3.67;;;;;;;22.16;52.86;101818.03;5002599;28;20054;-33
2023/09/02 03:42:03;;;;;;;3.88;3.47;;;;;;;22.16;52.64;101826.97;5006050;28;20449;-33
2023/09/02 03:44:31;;;;;;;4.38;3.38;;;;;;;22.15;52.76;101833.41;5004037;28;20054;-33
2023/09/02 03:46:58;;;;;;;4.40;3.50;;;;;;;22.15;52.88;101833.41;5006308;28;20054;-33
2023/09/02 03:49:24;;;;;;;3.92;3.33;;;;;;;22.14;52.92;101842.47;5008503;28;20437;-33
2023/09/02 03:51:51;;;;;;;3.97;3.33;;;;;;;22.14;52.36;101847.88;5008544;28;20452;-33
2023/09/02 03:54:18;;;;;;;4.25;3.72;;;;;;;22.14;52.79;101847.03;5002232;28;20049;-33
2023/09/02 03:56:45;;;;;;;4.35;3.33;;;;;;;22.13;52.53;101851.59;5003461;28;20393;-33
2023/09/02 03:59:11;;;;;;;3.83;3.28;;;;;;;22.13;52.74;101846.19;5005998;28;20509;-33
2023/09/02 04:01:38;;;;;;;3.85;3.25;;;;;;;22.12;52.58;101841.78;5005728;28;20454;-33
2023/09/02 04:04:05;;;;;;;3.80;3.40;;;;;;;22.13;52.74;101838.09;5005976;28;20054;-33
2023/09/02 04:06:31;;;;;;;4.47;3.97;;;;;;;22.12;52.74;101839.06;5006029;28;20073;-33
2023/09/02 04:08:58;;;;;;;4.10;3.70;;;;;;;22.13;52.79;101845.34;5008421;28;20054;-33
2023/09/02 04:11:25;;;;;;;3.72;3.28;;;;;;;22.12;52.71;101841.78;5001810;28;20077;-33
2023/09/02 04:13:51;;;;;;;4.97;3.83;;;;;;;22.12;52.67;101847.16;5003013;28;20054;-33
2023/09/02 04:16:19;;;;;;;3.28;2.90;;;;;;;22.11;52.67;101842.78;5004008;28;20084;-33
2023/09/02 04:18:46;;;;;;;3.90;3.47;;;;;;;22.12;52.51;101851.72;5003902;28;20058;-33
2023/09/02 04:21:13;;;;;;;4.47;3.60;;;;;;;22.11;52.70;101848.19;5005668;28;20137;-33
2023/09/02 04:23:41;;;;;;;3.50;3.20;;;;;;;22.12;52.60;101857.97;5009639;28;20064;-33
2023/09/02 04:26:08;;;;;;;3.72;3.33;;;;;;;22.12;52.57;101866.06;5003716;28;20077;-33
2023/09/02 04:28:34;;;;;;;3.70;3.15;;;;;;;22.11;52.65;101863.50;5001506;28;20433;-33
2023/09/02 04:31:01;;;;;;;4.30;3.45;;;;;;;22.11;52.69;101864.38;5004713;28;20052;-33
2023/09/02 04:33:28;;;;;;;3.47;3.17;;;;;;;22.10;53.12;101868.06;5003747;28;20077;-33
2023/09/02 04:35:55;;;;;;;3.63;3.33;;;;;;;22.10;52.96;101873.47;5003881;28;20053;-33
2023/09/02 04:38:21;;;;;;;3.58;3.13;;;;;;;22.10;52.80;101873.47;5006196;28;20207;-33
2023/09/02 04:40:48;;;;;;;4.25;3.28;;;;;;;22.11;52.82;101880.59;5003661;28;20064;-33
2023/09/02 04:43:15;;;;;;;3.95;3.30;;;;;;;22.09;52.75;101882.56;5004716;28;20058;-33
2023/09/02 04:45:42;;;;;;;4.35;3.45;;;;;;;22.09;52.90;101885.28;5012071;28;20050;-33
2023/09/02 04:48:10;;;;;;;3.38;2.95;;;;;;;22.09;52.77;101890.69;5005053;28;20310;-33
2023/09/02 04:50:38;;;;;;;3.90;3.30;;;;;;;22.07;52.79;101887.28;5000394;28;20589;-33
2023/09/02 04:53:05;;;;;;;3.90;3.35;;;;;;;22.08;52.92;101888.13;5009880;28;20139;-33
2023/09/02 04:55:33;;;;;;;3.35;2.95;;;;;;;22.08;52.52;101886.28;5005223;28;20389;-33
2023/09/02 04:57:59;;;;;;;3.30;3.00;;;;;;;22.09;52.95;101889.81;5009481;28;20053;-33
2023/09/02 05:00:27;;;;;;;4.00;3.38;;;;;;;22.07;52.81;101892.69;5006513;28;20093;-33
2023/09/02 05:02:54;;;;;;;4.05;3.40;;;;;;;22.08;52.91;101893.53;5005858;28;20046;-33
2023/09/02 05:05:22;;;;;;;3.38;3.08;;;;;;;22.08;52.63;101905.19;5004352;28;20236;-33
2023/09/02 05:07:50;;;;;;;3.63;3.08;;;;;;;22.07;52.69;101899.91;5006883;28;20070;-33
2023/09/02 05:10:17;;;;;;;3.25;2.88;;;;;;;22.08;52.53;101912.44;5005404;28;20054;-33
2023/09/02 05:12:44;;;;;;;3.25;2.92;;;;;;;22.07;52.50;101911.59;5003108;28;20054;-33
2023/09/02 05:15:10;;;;;;;3.05;2.72;;;;;;;22.07;52.71;101908.91;5003803;28;20053;-33
2023/09/02 05:17:37;;;;;;;3.20;2.80;;;;;;;22.07;52.79;101927.78;5002803;28;20062;-33
2023/09/02 05:20:05;;;;;;;3.20;2.90;;;;;;;22.07;52.64;101918.81;5006643;28;20046;-32
2023/09/02 05:22:33;;;;;;;3.05;2.75;;;;;;;22.08;52.71;101917.84;5003579;28;20374;-33
2023/09/02 05:25:00;;;;;;;3.08;2.78;;;;;;;22.08;52.75;101917.84;5003861;28;20058;-33
2023/09/02 05:27:26;;;;;;;3.03;2.70;;;;;;;22.07;52.66;101918.81;4998258;28;20056;-33
2023/09/02 05:29:53;;;;;;;3.47;2.95;;;;;;;22.07;52.90;101918.81;5000126;28;20132;-33
2023/09/02 05:32:20;;;;;;;2.95;2.65;;;;;;;22.07;52.50;101926.91;4999848;28;20050;-33
2023/09/02 05:34:46;;;;;;;3.03;2.72;;;;;;;22.07;52.63;101932.31;4999759;28;20135;-33
2023/09/02 05:37:13;;;;;;;3.38;3.05;;;;;;;22.06;52.60;101931.47;5001058;28;20053;-33
2023/09/02 05:39:40;;;;;;;3.33;3.03;;;;;;;22.07;53.01;101941.28;4999155;28;20046;-33
2023/09/02 05:42:06;;;;;;;3.03;2.58;;;;;;;22.07;52.75;101932.31;4999197;28;20515;-33
2023/09/02 05:44:37;;;;;;;3.90;2.78;;;;;;;22.06;52.66;101941.44;4999345;28;20093;-33
2023/09/02 05:47:03;;;;;;;2.80;2.55;;;;;;;22.06;52.64;101946.81;4997313;28;20054;-33
2023/09/02 05:49:34;;;;;;;2.85;2.63;;;;;;;22.05;52.68;101937.88;4999823;28;20157;-33
2023/09/02 05:52:01;;;;;;;3.35;3.05;;;;;;;22.06;52.84;101941.44;5001970;28;20053;-33
2023/09/02 05:54:28;;;;;;;3.30;2.80;;;;;;;22.06;52.82;101938.72;5001726;28;20503;-33
2023/09/02 05:56:54;;;;;;;3.28;2.65;;;;;;;22.05;52.57;101939.75;5000611;28;20081;-33
2023/09/02 05:59:21;;;;;;;3.03;2.72;;;;;;;22.05;52.83;101932.47;5000046;28;20104;-33
2023/09/02 06:01:47;;;;;;;2.97;2.67;;;;;;;22.05;52.57;101935.19;5000977;28;20073;-33
2023/09/02 06:04:14;;;;;;;3.05;2.75;;;;;;;22.06;52.65;101942.28;5000332;28;20042;-33
2023/09/02 06:06:42;;;;;;;2.95;2.65;;;;;;;22.05;52.82;101934.34;5000215;28;20129;-33
2023/09/02 06:09:10;;;;;;;3.03;2.72;;;;;;;22.04;52.85;101938.91;5002323;28;20081;-33
2023/09/02 06:11:36;;;;;;;2.97;2.60;;;;;;;22.06;52.92;101941.44;5000767;28;20511;-33
2023/09/02 06:14:03;;;;;;;3.85;2.60;;;;;;;22.05;52.52;101943.28;5002865;28;20042;-33
2023/09/02 06:16:29;;;;;;;2.88;2.58;;;;;;;22.04;52.69;101947.00;4996876;28;20079;-33
2023/09/02 06:18:56;;;;;;;2.85;2.63;;;;;;;22.04;52.84;101949.69;4997636;28;20136;-33
2023/09/02 06:21:23;;;;;;;3.13;2.78;;;;;;;22.03;52.70;101949.81;4998145;28;20073;-33
2023/09/02 06:23:49;;;;;;;2.65;2.45;;;;;;;22.03;52.71;101956.09;5003303;28;20260;-33
2023/09/02 06:26:16;;;;;;;3.22;2.83;;;;;;;22.04;52.96;101965.03;4999774;28;20098;-33
2023/09/02 06:28:43;;;;;;;2.80;2.50;;;;;;;22.02;52.82;101967.88;5003942;28;20050;-33
2023/09/02 06:31:11;;;;;;;3.17;2.88;;;;;;;22.03;52.74;101979.53;5004191;28;20129;-33
2023/09/02 06:33:37;;;;;;;3.40;3.10;;;;;;;22.03;52.87;101990.31;5004074;28;20069;-33
2023/09/02 06:36:16;;;;;;;2.47;2.28;;;;;;;22.02;52.91;101996.72;5006420;28;20137;-33
2023/09/02 06:38:43;;;;;;;2.72;2.42;;;;;;;22.04;52.69;102013.66;4999617;28;20050;-33
2023/09/02 06:41:15;;;;;;;3.45;2.90;;;;;;;22.04;52.81;102011.78;4997885;28;20053;-33
2023/09/02 06:43:42;;;;;;;3.78;2.50;;;;;;;22.05;52.87;102015.34;5002443;28;20125;-33
2023/09/02 06:46:15;;;;;;;2.95;2.53;;;;;;;22.04;52.80;102011.78;5001469;28;20268;-33
2023/09/02 06:48:44;;;;;;;3.80;3.15;;;;;;;22.06;52.72;102020.56;5001485;28;20448;-33
2023/09/02 06:51:11;;;;;;;2.97;2.67;;;;;;;22.07;52.63;102029.53;5003853;28;20061;-33
2023/09/02 06:53:38;;;;;;;3.72;3.13;;;;;;;22.06;52.87;102028.66;5003025;28;20500;-33
2023/09/02 06:56:07;;;;;;;3.53;3.22;;;;;;;22.09;52.76;102032.94;5009327;28;20042;-33
2023/09/02 06:58:35;;;;;;;3.95;2.88;;;;;;;22.09;52.82;102036.47;5005791;28;20058;-33
2023/09/02 07:01:02;;;;;;;4.32;2.97;;;;;;;22.09;52.41;102039.19;5003826;28;20335;-33
2023/09/02 07:03:28;;;;;;;3.60;2.95;;;;;;;22.11;52.40;102029.09;5003042;28;20053;-33
2023/09/02 07:06:06;;;;;;;3.97;3.42;;;;;;;22.11;52.47;102039.88;5009000;28;20054;-33
2023/09/02 07:08:33;;;;;;;4.05;3.20;;;;;;;22.12;52.76;102033.47;5010323;28;20058;-33
2023/09/02 07:11:00;;;;;;;7.63;3.45;;;;;;;22.14;52.73;102034.19;5000126;28;20054;-33
2023/09/02 07:13:27;;;;;;;4.25;3.55;;;;;;;22.15;52.63;102040.44;5003835;28;20103;-33
2023/09/02 07:16:00;;;;;;;3.25;2.88;;;;;;;22.15;52.43;102048.53;5004997;28;20115;-33
2023/09/02 07:18:27;;;;;;;4.72;3.97;;;;;;;22.16;52.40;102050.28;5007476;28;20124;-33
2023/09/02 07:21:01;;;;;;;5.13;3.80;;;;;;;22.17;52.28;102057.34;5007134;28;20072;-33
2023/09/02 07:23:28;;;;;;;8.15;5.30;;;;;;;22.21;52.36;102060.59;5005726;28;20076;-33
2023/09/02 07:25:57;;;;;;;11.85;7.95;;;;;;;22.23;53.02;102074.78;4988698;28;20164;-33
2023/09/02 07:28:23;;;;;;;21.30;12.35;;;;;;;22.25;52.84;102064.72;4993888;28;20053;-34
2023/09/02 07:30:50;;;;;;;41.03;23.92;;;;;;;22.29;53.51;102066.94;4992623;28;20441;-34
2023/09/02 07:33:17;;;;;;;39.40;24.52;;;;;;;22.34;53.88;102074.59;4997354;28;20053;-36
2023/09/02 07:35:44;;;;;;;46.72;28.75;;;;;;;22.36;53.89;102078.00;4997369;28;20054;-35
2023/09/02 07:38:10;;;;;;;54.83;32.30;;;;;;;22.39;54.32;102073.16;4996854;28;20056;-35
2023/09/02 07:40:37;;;;;;;60.97;35.47;;;;;;;22.42;54.77;102078.22;4999474;28;20060;-35
2023/09/02 07:43:03;;;;;;;63.85;37.38;;;;;;;22.46;54.65;102089.56;4957210;28;20153;-35
2023/09/02 07:45:30;;;;;;;57.55;37.05;;;;;;;22.47;55.47;102087.72;4994723;28;20056;-35
2023/09/02 07:47:57;;;;;;;57.00;36.17;;;;;;;22.50;55.46;102092.81;4997580;28;20105;-34
2023/09/02 07:50:23;;;;;;;62.92;39.95;;;;;;;22.51;55.47;102089.13;4994628;28;20053;-34
2023/09/02 07:52:50;;;;;;;70.55;44.00;;;;;;;22.54;55.75;102102.31;4994934;28;20335;-34
2023/09/02 07:55:16;;;;;;;69.80;43.00;;;;;;;22.56;55.70;102095.78;4990914;28;20519;-34
2023/09/02 07:57:44;;;;;;;68.43;40.80;;;;;;;22.58;55.32;102099.16;4992915;28;20064;-34
2023/09/02 08:00:11;;;;;;;67.97;42.50;;;;;;;22.60;55.85;102102.56;4997826;28;20434;-34
2023/09/02 08:02:38;;;;;;;66.15;40.47;;;;;;;22.61;55.57;102109.66;4997767;28;20485;-35
2023/09/02 08:05:06;;;;;;;61.75;37.97;;;;;;;22.64;56.10;102109.38;4962022;28;20060;-34
2023/09/02 08:07:33;;;;;;;61.75;38.13;;;;;;;22.67;56.12;102108.19;5013644;28;20054;-34
2023/09/02 08:09:59;;;;;;;58.95;36.53;;;;;;;22.68;56.41;102109.91;5012587;28;20053;-36
2023/09/02 08:12:26;;;;;;;52.75;33.50;;;;;;;22.70;56.16;102107.91;5013621;28;20127;-36
2023/09/02 08:14:53;;;;;;;55.85;34.53;;;;;;;22.73;56.24;102115.69;5015099;28;20133;-36
2023/09/02 08:17:19;;;;;;;48.40;32.10;;;;;;;22.76;55.80;102114.56;5018787;28;20111;-36
2023/09/02 08:19:46;;;;;;;51.47;32.17;;;;;;;22.76;56.21;102106.44;5022035;28;20108;-36
2023/09/02 08:22:13;;;;;;;48.60;29.77;;;;;;;22.79;56.14;102122.34;4996400;28;20164;-38
2023/09/02 08:24:40;;;;;;;44.78;29.10;;;;;;;22.80;55.84;102118.66;4996188;28;20345;-36
2023/09/02 08:27:09;;;;;;;50.92;30.85;;;;;;;22.81;55.92;102115.78;5020324;28;20128;-36
2023/09/02 08:29:35;;;;;;;46.45;30.17;;;;;;;22.83;55.94;102118.31;5022818;28;20077;-36
2023/09/02 08:32:02;;;;;;;43.60;27.90;;;;;;;22.84;55.56;102117.34;5023240;28;20112;-36
2023/09/02 08:34:29;;;;;;;42.42;27.75;;;;;;;22.87;55.82;102119.72;5021356;28;20606;-36
2023/09/02 08:36:55;;;;;;;41.90;27.08;;;;;;;22.88;55.79;102110.63;5018571;28;20074;-36
2023/09/02 08:39:22;;;;;;;39.25;25.95;;;;;;;22.89;56.04;102115.84;5015020;28;20421;-36
2023/09/02 08:41:49;;;;;;;39.55;25.60;;;;;;;22.90;55.32;102109.47;5015434;28;20053;-36
2023/09/02 08:44:19;;;;;;;38.95;25.10;;;;;;;22.92;55.21;102111.19;4968109;28;20058;-36
2023/09/02 08:46:48;;;;;;;39.33;26.13;;;;;;;22.93;56.03;102113.72;5016026;28;20552;-36
2023/09/02 08:49:16;;;;;;;35.80;24.05;;;;;;;22.95;55.74;102114.41;5018266;28;20373;-36
2023/09/02 08:51:43;;;;;;;36.80;23.38;;;;;;;22.96;55.65;102120.69;5014640;28;20080;-36
2023/09/02 08:54:12;;;;;;;34.92;22.92;;;;;;;22.96;55.54;102124.25;5014868;28;20054;-36
2023/09/02 08:56:42;;;;;;;38.05;23.73;;;;;;;22.98;55.66;102127.63;5009680;28;20053;-36
2023/09/02 08:59:09;;;;;;;33.45;21.98;;;;;;;22.99;55.56;102142.00;5012502;28;20107;-36
2023/09/02 09:01:44;;;;;;;33.08;22.08;;;;;;;23.00;55.98;102138.31;5015469;28;20146;-36
2023/09/02 09:04:14;;;;;;;36.58;24.10;;;;;;;23.02;55.99;102147.09;4979784;28;20469;-36
2023/09/02 09:06:42;;;;;;;39.83;26.17;;;;;;;23.03;56.07;102140.69;5013303;28;20057;-35
2023/09/02 09:09:09;;;;;;;39.90;26.15;;;;;;;23.03;56.80;102152.34;5013657;28;20103;-36
2023/09/02 09:11:42;;;;;;;44.47;28.30;;;;;;;23.05;56.83;102163.88;5011104;28;20052;-36
2023/09/02 09:14:24;;;;;;;45.95;29.65;;;;;;;23.04;56.26;102151.34;5011196;28;20051;-36
2023/09/02 09:16:54;;;;;;;44.22;28.92;;;;;;;23.05;56.52;102153.06;5012827;28;20354;-35
2023/09/02 09:19:25;;;;;;;43.97;27.92;;;;;;;23.05;56.98;102161.16;5012955;28;20076;-35
2023/09/02 09:21:52;;;;;;;49.42;31.70;;;;;;;23.06;56.47;102162.00;5012090;28;20096;-35
2023/09/02 09:24:18;;;;;;;50.65;31.65;;;;;;;23.06;56.72;102164.72;4973232;28;20128;-35
2023/09/02 09:26:46;;;;;;;51.72;31.77;;;;;;;23.06;56.64;102165.56;5002952;28;20773;-34
2023/09/02 09:29:15;;;;;;;46.08;28.88;;;;;;;23.07;56.37;102172.66;5009967;28;20477;-34
2023/09/02 09:31:42;;;;;;;44.70;28.17;;;;;;;23.08;56.71;102192.47;5011664;28;20351;-36
2023/09/02 09:34:09;;;;;;;50.45;30.70;;;;;;;23.08;56.31;102190.59;5014456;28;20163;-35
2023/09/02 09:36:36;;;;;;;50.90;30.35;;;;;;;23.09;56.67;102194.16;5012340;28;20135;-34
2023/09/02 09:39:11;;;;;;;83.72;48.95;;;;;;;23.09;56.83;102199.56;5011712;28;20650;-33
2023/09/02 09:41:46;;;;;;;76.60;45.70;;;;;;;23.09;57.65;102203.13;5007192;28;20525;-34
2023/09/02 09:44:15;;;;;;;67.85;41.72;;;;;;;23.10;57.27;102215.63;4974654;28;20517;-33
2023/09/02 09:46:52;;;;;;;69.72;41.58;;;;;;;23.08;58.06;102214.94;4999003;28;20119;-33
2023/09/02 09:49:29;;;;;;;64.50;40.65;;;;;;;23.07;58.29;102215.94;4992955;28;20089;-33
2023/09/02 09:52:09;;;;;;;58.28;36.25;;;;;;;23.06;58.25;102222.34;4992343;28;20503;-34
2023/09/02 09:54:45;;;;;;;54.55;33.55;;;;;;;23.06;57.97;102225.06;4998018;28;20058;-34
2023/09/02 09:57:28;;;;;;;56.45;33.20;;;;;;;23.06;57.84;102232.31;4989418;28;20054;-34
2023/09/02 09:59:55;;;;;;;48.20;29.65;;;;;;;23.06;57.77;102225.06;4995058;28;20050;-34
2023/09/02 10:02:22;;;;;;;46.97;28.02;;;;;;;23.06;57.82;102233.16;4993905;28;20054;-34
2023/09/02 10:04:53;;;;;;;45.47;27.50;;;;;;;23.06;58.31;102235.03;4986508;28;20067;-34
2023/09/02 10:07:24;;;;;;;43.45;26.23;;;;;;;23.05;58.13;102236.03;5011735;28;20241;-34
2023/09/02 10:09:53;;;;;;;40.53;25.15;;;;;;;23.06;58.27;102229.63;4990216;28;20061;-34
2023/09/02 10:12:21;;;;;;;46.78;27.60;;;;;;;23.06;58.09;102233.16;4996678;28;20081;-34
2023/09/02 10:14:48;;;;;;;39.75;23.67;;;;;;;23.06;58.46;102238.56;4994305;28;20054;-34
2023/09/02 10:17:16;;;;;;;40.13;25.23;;;;;;;23.07;58.47;102242.97;4993480;28;20148;-34
2023/09/02 10:19:45;;;;;;;42.08;24.35;;;;;;;23.06;58.72;102249.41;4984373;28;20062;-34
2023/09/02 10:22:19;;;;;;;36.63;22.30;;;;;;;23.05;58.75;102253.13;4998131;28;20291;-34
2023/09/02 10:25:10;;;;;;;35.60;21.90;;;;;;;23.03;58.30;102259.66;5014277;28;20140;-34
2023/09/02 10:27:40;;;;;;;34.83;22.05;;;;;;;23.05;58.27;102257.69;5005532;28;20050;-35
2023/09/02 10:30:30;;;;;;;30.52;19.80;;;;;;;23.05;58.51;102257.69;4990350;28;21292;-34
2023/09/02 10:33:13;;;;;;;32.75;22.02;;;;;;;23.06;58.88;102253.97;4989698;28;20755;-34
2023/09/02 10:35:43;;;;;;;31.77;19.75;;;;;;;23.07;58.40;102253.78;4988640;28;20081;-34
2023/09/02 10:38:17;;;;;;;28.73;18.80;;;;;;;23.08;58.75;102257.38;4989971;28;20522;-35
2023/09/02 10:40:55;;;;;;;31.23;20.27;;;;;;;23.08;58.98;102260.94;4989737;28;20086;-35
2023/09/02 10:43:24;;;;;;;32.22;19.48;;;;;;;23.08;59.25;102266.34;4954323;28;20141;-35
2023/09/02 10:45:50;;;;;;;30.45;19.73;;;;;;;23.08;58.99;102266.34;5006173;28;20104;-35
2023/09/02 10:48:18;;;;;;;31.33;19.77;;;;;;;23.09;59.04;102272.59;5020486;28;20054;-35
2023/09/02 10:50:45;;;;;;;30.20;18.70;;;;;;;23.10;58.81;102263.47;4978346;28;20336;-35
2023/09/02 10:53:11;;;;;;;26.98;18.23;;;;;;;23.10;58.48;102263.47;4983116;28;20050;-35
2023/09/02 10:56:02;;;;;;;28.73;17.98;;;;;;;23.12;58.88;102254.22;4976535;28;20136;-35
2023/09/02 10:58:49;;;;;;;31.30;19.75;;;;;;;23.12;58.54;102254.22;4977385;28;20343;-33
2023/09/02 11:01:15;;;;;;;30.48;19.70;;;;;;;23.15;58.25;102259.28;4976494;28;20141;-33
2023/09/02 11:03:47;;;;;;;33.42;21.23;;;;;;;23.17;58.04;102256.44;4952486;28;20476;-34
2023/09/02 11:06:15;;;;;;;28.75;18.42;;;;;;;23.19;58.28;102253.59;5014181;28;20061;-33
2023/09/02 11:08:52;;;;;;;30.80;19.48;;;;;;;23.18;58.33;102250.03;4979007;28;20516;-33
2023/09/02 11:11:20;;;;;;;31.42;20.33;;;;;;;23.20;57.58;102255.31;4974203;28;20152;-33
2023/09/02 11:14:08;;;;;;;29.60;18.88;;;;;;;23.19;57.40;102264.41;4973015;28;20332;-34
2023/09/02 11:16:38;;;;;;;32.00;20.73;;;;;;;23.21;57.83;102265.97;4991830;28;20472;-34
2023/09/02 11:19:08;;;;;;;33.88;21.10;;;;;;;23.22;57.69;102266.81;4984699;28;20167;-34
2023/09/02 11:21:38;;;;;;;29.92;20.50;;;;;;;23.22;57.54;102273.06;4983677;28;20053;-34
2023/09/02 11:24:22;;;;;;;29.42;19.33;;;;;;;23.22;57.38;102270.34;4990508;28;20468;-34